sensor_id;sensor_type;location;lat;lon;timestamp;P1;durP1;ratioP1;P2;durP2;ratioP2
68976;SDS011;56029;52.568;13.588;2023-09-12T00:00:04;16.20;;;10.53;;
68976;SDS011;56029;52.568;13.588;2023-09-12T00:02:30;17.17;;;10.75;;
68976;SDS011;56029;52.568;13.588;2023-09-12T00:04:56;17.17;;;11.23;;
68976;SDS011;56029;52.568;13.588;2023-09-12T00:07:21;16.52;;;11.13;;
68976;SDS011;56029;52.568;13.588;2023-09-12T00:09:47;17.50;;;10.77;;
68976;SDS011;56029;52.568;13.588;2023-09-12T00:12:16;16.58;;;11.00;;
68976;SDS011;56029;52.568;13.588;2023-09-12T00:14:41;16.90;;;11.00;;
68976;SDS011;56029;52.568;13.588;2023-09-12T00:17:07;18.83;;;11.50;;
68976;SDS011;56029;52.568;13.588;2023-09-12T00:19:32;17.93;;;11.90;;
68976;SDS011;56029;52.568;13.588;2023-09-12T00:21:58;19.07;;;11.77;;
68976;SDS011;56029;52.568;13.588;2023-09-12T00:24:23;18.90;;;11.70;;
68976;SDS011;56029;52.568;13.588;2023-09-12T00:26:49;18.13;;;11.73;;
68976;SDS011;56029;52.568;13.588;2023-09-12T00:29:14;17.60;;;11.73;;
68976;SDS011;56029;52.568;13.588;2023-09-12T00:31:40;18.38;;;11.77;;
68976;SDS011;56029;52.568;13.588;2023-09-12T00:34:05;20.67;;;12.23;;
68976;SDS011;56029;52.568;13.588;2023-09-12T00:36:31;20.20;;;11.70;;
68976;SDS011;56029;52.568;13.588;2023-09-12T00:38:56;19.97;;;12.07;;
68976;SDS011;56029;52.568;13.588;2023-09-12T00:41:22;17.07;;;11.73;;
68976;SDS011;56029;52.568;13.588;2023-09-12T00:43:48;19.10;;;12.03;;
68976;SDS011;56029;52.568;13.588;2023-09-12T00:46:14;20.40;;;12.63;;
68976;SDS011;56029;52.568;13.588;2023-09-12T00:48:44;19.48;;;12.48;;
68976;SDS011;56029;52.568;13.588;2023-09-12T00:51:11;18.80;;;11.82;;
68976;SDS011;56029;52.568;13.588;2023-09-12T00:53:39;18.02;;;11.68;;
68976;SDS011;56029;52.568;13.588;2023-09-12T00:56:04;20.37;;;11.83;;
68976;SDS011;56029;52.568;13.588;2023-09-12T00:58:31;16.75;;;11.32;;
68976;SDS011;56029;52.568;13.588;2023-09-12T01:00:58;18.50;;;11.80;;
68976;SDS011;56029;52.568;13.588;2023-09-12T01:03:23;21.50;;;12.07;;
68976;SDS011;56029;52.568;13.588;2023-09-12T01:05:49;19.00;;;12.55;;
68976;SDS011;56029;52.568;13.588;2023-09-12T01:08:15;20.73;;;13.27;;
68976;SDS011;56029;52.568;13.588;2023-09-12T01:10:41;18.60;;;12.53;;
68976;SDS011;56029;52.568;13.588;2023-09-12T01:13:07;19.70;;;12.85;;
68976;SDS011;56029;52.568;13.588;2023-09-12T01:15:32;20.50;;;13.23;;
68976;SDS011;56029;52.568;13.588;2023-09-12T01:17:58;19.53;;;13.00;;
68976;SDS011;56029;52.568;13.588;2023-09-12T01:20:24;21.75;;;13.13;;
68976;SDS011;56029;52.568;13.588;2023-09-12T01:22:55;20.40;;;12.60;;
68976;SDS011;56029;52.568;13.588;2023-09-12T01:25:34;21.07;;;12.73;;
68976;SDS011;56029;52.568;13.588;2023-09-12T01:28:23;18.63;;;12.07;;
68976;SDS011;56029;52.568;13.588;2023-09-12T01:30:49;21.83;;;13.10;;
68976;SDS011;56029;52.568;13.588;2023-09-12T01:33:16;20.52;;;12.30;;
68976;SDS011;56029;52.568;13.588;2023-09-12T01:35:42;18.75;;;11.90;;
68976;SDS011;56029;52.568;13.588;2023-09-12T01:38:08;18.40;;;12.23;;
68976;SDS011;56029;52.568;13.588;2023-09-12T01:40:47;19.47;;;12.83;;
68976;SDS011;56029;52.568;13.588;2023-09-12T01:43:15;18.70;;;12.10;;
68976;SDS011;56029;52.568;13.588;2023-09-12T01:45:43;19.05;;;12.02;;
68976;SDS011;56029;52.568;13.588;2023-09-12T01:48:21;19.10;;;12.18;;
68976;SDS011;56029;52.568;13.588;2023-09-12T01:50:48;22.63;;;12.90;;
68976;SDS011;56029;52.568;13.588;2023-09-12T01:53:14;18.37;;;11.87;;
68976;SDS011;56029;52.568;13.588;2023-09-12T01:55:42;19.85;;;12.07;;
68976;SDS011;56029;52.568;13.588;2023-09-12T01:58:08;20.02;;;12.77;;
68976;SDS011;56029;52.568;13.588;2023-09-12T02:00:34;20.52;;;12.25;;
68976;SDS011;56029;52.568;13.588;2023-09-12T02:03:01;20.90;;;11.80;;
68976;SDS011;56029;52.568;13.588;2023-09-12T02:05:27;17.17;;;11.50;;
68976;SDS011;56029;52.568;13.588;2023-09-12T02:07:52;21.23;;;12.70;;
68976;SDS011;56029;52.568;13.588;2023-09-12T02:10:18;20.52;;;11.98;;
68976;SDS011;56029;52.568;13.588;2023-09-12T02:12:43;19.03;;;12.10;;
68976;SDS011;56029;52.568;13.588;2023-09-12T02:15:09;18.70;;;11.98;;
68976;SDS011;56029;52.568;13.588;2023-09-12T02:17:34;19.40;;;12.07;;
68976;SDS011;56029;52.568;13.588;2023-09-12T02:20:00;20.23;;;12.57;;
68976;SDS011;56029;52.568;13.588;2023-09-12T02:22:25;19.60;;;12.35;;
68976;SDS011;56029;52.568;13.588;2023-09-12T02:24:51;18.57;;;11.70;;
68976;SDS011;56029;52.568;13.588;2023-09-12T02:27:16;19.43;;;11.83;;
68976;SDS011;56029;52.568;13.588;2023-09-12T02:29:42;20.35;;;12.65;;
68976;SDS011;56029;52.568;13.588;2023-09-12T02:32:08;17.97;;;12.40;;
68976;SDS011;56029;52.568;13.588;2023-09-12T02:34:34;20.77;;;13.02;;
68976;SDS011;56029;52.568;13.588;2023-09-12T02:37:00;19.70;;;12.83;;
68976;SDS011;56029;52.568;13.588;2023-09-12T02:39:26;19.50;;;12.23;;
68976;SDS011;56029;52.568;13.588;2023-09-12T02:41:52;20.02;;;13.48;;
68976;SDS011;56029;52.568;13.588;2023-09-12T02:44:17;18.83;;;12.80;;
68976;SDS011;56029;52.568;13.588;2023-09-12T02:46:43;19.60;;;12.57;;
68976;SDS011;56029;52.568;13.588;2023-09-12T02:49:08;20.60;;;12.77;;
68976;SDS011;56029;52.568;13.588;2023-09-12T02:51:34;23.57;;;13.10;;
68976;SDS011;56029;52.568;13.588;2023-09-12T02:54:03;20.13;;;12.85;;
68976;SDS011;56029;52.568;13.588;2023-09-12T02:56:28;18.77;;;12.00;;
68976;SDS011;56029;52.568;13.588;2023-09-12T02:58:54;19.75;;;12.35;;
68976;SDS011;56029;52.568;13.588;2023-09-12T03:01:20;21.53;;;13.03;;
68976;SDS011;56029;52.568;13.588;2023-09-12T03:03:46;18.05;;;12.25;;
68976;SDS011;56029;52.568;13.588;2023-09-12T03:06:11;21.13;;;12.90;;
68976;SDS011;56029;52.568;13.588;2023-09-12T03:08:37;21.60;;;12.93;;
68976;SDS011;56029;52.568;13.588;2023-09-12T03:11:03;20.03;;;12.77;;
68976;SDS011;56029;52.568;13.588;2023-09-12T03:13:29;18.58;;;12.32;;
68976;SDS011;56029;52.568;13.588;2023-09-12T03:15:54;19.80;;;12.43;;
68976;SDS011;56029;52.568;13.588;2023-09-12T03:18:20;18.95;;;13.07;;
68976;SDS011;56029;52.568;13.588;2023-09-12T03:20:45;19.40;;;12.23;;
68976;SDS011;56029;52.568;13.588;2023-09-12T03:23:11;19.97;;;13.10;;
68976;SDS011;56029;52.568;13.588;2023-09-12T03:25:37;20.50;;;13.60;;
68976;SDS011;56029;52.568;13.588;2023-09-12T03:28:04;21.92;;;13.52;;
68976;SDS011;56029;52.568;13.588;2023-09-12T03:30:30;19.38;;;13.07;;
68976;SDS011;56029;52.568;13.588;2023-09-12T03:32:57;20.17;;;12.80;;
68976;SDS011;56029;52.568;13.588;2023-09-12T03:35:23;18.63;;;12.77;;
68976;SDS011;56029;52.568;13.588;2023-09-12T03:37:48;19.73;;;13.37;;
68976;SDS011;56029;52.568;13.588;2023-09-12T03:40:14;24.73;;;13.25;;
68976;SDS011;56029;52.568;13.588;2023-09-12T03:42:40;21.40;;;14.13;;
68976;SDS011;56029;52.568;13.588;2023-09-12T03:45:05;22.20;;;14.63;;
68976;SDS011;56029;52.568;13.588;2023-09-12T03:47:31;22.33;;;13.27;;
68976;SDS011;56029;52.568;13.588;2023-09-12T03:49:57;21.60;;;13.33;;
68976;SDS011;56029;52.568;13.588;2023-09-12T03:52:22;20.95;;;13.57;;
68976;SDS011;56029;52.568;13.588;2023-09-12T03:54:48;20.10;;;13.57;;
68976;SDS011;56029;52.568;13.588;2023-09-12T03:57:13;21.30;;;13.23;;
68976;SDS011;56029;52.568;13.588;2023-09-12T03:59:39;21.30;;;13.33;;
68976;SDS011;56029;52.568;13.588;2023-09-12T04:02:04;22.20;;;14.37;;
68976;SDS011;56029;52.568;13.588;2023-09-12T04:04:30;20.30;;;13.95;;
68976;SDS011;56029;52.568;13.588;2023-09-12T04:06:55;22.40;;;14.07;;
68976;SDS011;56029;52.568;13.588;2023-09-12T04:09:21;23.53;;;14.70;;
68976;SDS011;56029;52.568;13.588;2023-09-12T04:11:46;22.92;;;15.13;;
68976;SDS011;56029;52.568;13.588;2023-09-12T04:14:13;24.17;;;15.43;;
68976;SDS011;56029;52.568;13.588;2023-09-12T04:16:39;26.75;;;16.02;;
68976;SDS011;56029;52.568;13.588;2023-09-12T04:19:05;24.67;;;14.80;;
68976;SDS011;56029;52.568;13.588;2023-09-12T04:21:30;24.73;;;15.67;;
68976;SDS011;56029;52.568;13.588;2023-09-12T04:23:56;25.63;;;14.90;;
68976;SDS011;56029;52.568;13.588;2023-09-12T04:26:21;30.67;;;15.57;;
68976;SDS011;56029;52.568;13.588;2023-09-12T04:28:47;23.47;;;16.07;;
68976;SDS011;56029;52.568;13.588;2023-09-12T04:31:13;22.50;;;14.90;;
68976;SDS011;56029;52.568;13.588;2023-09-12T04:33:38;24.97;;;15.73;;
68976;SDS011;56029;52.568;13.588;2023-09-12T04:36:04;22.95;;;14.70;;
68976;SDS011;56029;52.568;13.588;2023-09-12T04:38:29;21.53;;;14.57;;
68976;SDS011;56029;52.568;13.588;2023-09-12T04:40:59;22.13;;;14.40;;
68976;SDS011;56029;52.568;13.588;2023-09-12T04:43:25;23.00;;;13.98;;
68976;SDS011;56029;52.568;13.588;2023-09-12T04:45:51;21.50;;;14.30;;
68976;SDS011;56029;52.568;13.588;2023-09-12T04:48:16;23.47;;;14.20;;
68976;SDS011;56029;52.568;13.588;2023-09-12T04:50:42;26.40;;;15.15;;
68976;SDS011;56029;52.568;13.588;2023-09-12T04:53:08;22.83;;;14.53;;
68976;SDS011;56029;52.568;13.588;2023-09-12T04:55:37;23.13;;;14.82;;
68976;SDS011;56029;52.568;13.588;2023-09-12T04:58:04;22.17;;;14.55;;
68976;SDS011;56029;52.568;13.588;2023-09-12T05:00:30;22.67;;;14.13;;
68976;SDS011;56029;52.568;13.588;2023-09-12T05:02:56;23.60;;;14.75;;
68976;SDS011;56029;52.568;13.588;2023-09-12T05:05:21;21.48;;;14.80;;
68976;SDS011;56029;52.568;13.588;2023-09-12T05:07:47;21.87;;;14.60;;
68976;SDS011;56029;52.568;13.588;2023-09-12T05:10:12;22.33;;;14.93;;
68976;SDS011;56029;52.568;13.588;2023-09-12T05:12:38;23.95;;;15.05;;
68976;SDS011;56029;52.568;13.588;2023-09-12T05:15:04;22.90;;;14.50;;
68976;SDS011;56029;52.568;13.588;2023-09-12T05:17:30;23.48;;;15.35;;
68976;SDS011;56029;52.568;13.588;2023-09-12T05:19:55;21.50;;;14.93;;
68976;SDS011;56029;52.568;13.588;2023-09-12T05:22:21;22.60;;;14.83;;
68976;SDS011;56029;52.568;13.588;2023-09-12T05:24:46;20.73;;;14.20;;
68976;SDS011;56029;52.568;13.588;2023-09-12T05:27:12;22.37;;;15.07;;
68976;SDS011;56029;52.568;13.588;2023-09-12T05:29:37;24.92;;;15.30;;
68976;SDS011;56029;52.568;13.588;2023-09-12T05:32:03;24.77;;;15.90;;
68976;SDS011;56029;52.568;13.588;2023-09-12T05:34:29;22.98;;;15.57;;
68976;SDS011;56029;52.568;13.588;2023-09-12T05:36:56;22.60;;;15.00;;
68976;SDS011;56029;52.568;13.588;2023-09-12T05:39:22;24.30;;;15.48;;
68976;SDS011;56029;52.568;13.588;2023-09-12T05:41:48;24.33;;;15.97;;
68976;SDS011;56029;52.568;13.588;2023-09-12T05:44:14;24.05;;;16.08;;
68976;SDS011;56029;52.568;13.588;2023-09-12T05:46:40;25.57;;;17.17;;
68976;SDS011;56029;52.568;13.588;2023-09-12T05:49:05;25.50;;;18.08;;
68976;SDS011;56029;52.568;13.588;2023-09-12T05:51:31;24.77;;;16.67;;
68976;SDS011;56029;52.568;13.588;2023-09-12T05:53:56;25.83;;;17.47;;
68976;SDS011;56029;52.568;13.588;2023-09-12T05:56:22;26.47;;;17.80;;
68976;SDS011;56029;52.568;13.588;2023-09-12T05:58:47;26.48;;;16.80;;
68976;SDS011;56029;52.568;13.588;2023-09-12T06:01:13;26.63;;;17.07;;
68976;SDS011;56029;52.568;13.588;2023-09-12T06:03:38;26.83;;;17.05;;
68976;SDS011;56029;52.568;13.588;2023-09-12T06:06:04;24.60;;;16.67;;
68976;SDS011;56029;52.568;13.588;2023-09-12T06:08:30;26.83;;;16.77;;
68976;SDS011;56029;52.568;13.588;2023-09-12T06:10:55;24.50;;;17.10;;
68976;SDS011;56029;52.568;13.588;2023-09-12T06:13:21;24.90;;;17.00;;
68976;SDS011;56029;52.568;13.588;2023-09-12T06:15:46;23.95;;;17.10;;
68976;SDS011;56029;52.568;13.588;2023-09-12T06:18:12;24.73;;;16.93;;
68976;SDS011;56029;52.568;13.588;2023-09-12T06:20:37;24.87;;;16.97;;
68976;SDS011;56029;52.568;13.588;2023-09-12T06:23:03;26.40;;;18.60;;
68976;SDS011;56029;52.568;13.588;2023-09-12T06:25:28;27.93;;;17.33;;
68976;SDS011;56029;52.568;13.588;2023-09-12T06:27:54;27.45;;;17.80;;
68976;SDS011;56029;52.568;13.588;2023-09-12T06:30:20;26.70;;;18.07;;
68976;SDS011;56029;52.568;13.588;2023-09-12T06:32:45;27.77;;;17.40;;
68976;SDS011;56029;52.568;13.588;2023-09-12T06:35:11;23.77;;;17.90;;
68976;SDS011;56029;52.568;13.588;2023-09-12T06:37:37;26.73;;;17.80;;
68976;SDS011;56029;52.568;13.588;2023-09-12T06:40:03;24.45;;;17.00;;
68976;SDS011;56029;52.568;13.588;2023-09-12T06:42:29;23.73;;;17.08;;
68976;SDS011;56029;52.568;13.588;2023-09-12T06:44:55;25.00;;;16.57;;
68976;SDS011;56029;52.568;13.588;2023-09-12T06:47:20;23.50;;;16.93;;
68976;SDS011;56029;52.568;13.588;2023-09-12T06:49:46;25.60;;;17.00;;
68976;SDS011;56029;52.568;13.588;2023-09-12T06:52:11;24.83;;;16.47;;
68976;SDS011;56029;52.568;13.588;2023-09-12T06:54:37;23.73;;;16.67;;
68976;SDS011;56029;52.568;13.588;2023-09-12T06:57:02;22.27;;;16.38;;
68976;SDS011;56029;52.568;13.588;2023-09-12T06:59:28;23.67;;;16.60;;
68976;SDS011;56029;52.568;13.588;2023-09-12T07:01:54;24.95;;;16.35;;
68976;SDS011;56029;52.568;13.588;2023-09-12T07:04:19;21.80;;;16.73;;
68976;SDS011;56029;52.568;13.588;2023-09-12T07:06:45;26.20;;;16.07;;
68976;SDS011;56029;52.568;13.588;2023-09-12T07:09:10;21.20;;;15.40;;
68976;SDS011;56029;52.568;13.588;2023-09-12T07:11:36;24.02;;;16.10;;
68976;SDS011;56029;52.568;13.588;2023-09-12T07:14:01;23.57;;;15.23;;
68976;SDS011;56029;52.568;13.588;2023-09-12T07:16:27;21.17;;;15.45;;
68976;SDS011;56029;52.568;13.588;2023-09-12T07:18:52;21.30;;;14.80;;
68976;SDS011;56029;52.568;13.588;2023-09-12T07:21:18;24.40;;;15.30;;
68976;SDS011;56029;52.568;13.588;2023-09-12T07:23:43;22.45;;;15.18;;
68976;SDS011;56029;52.568;13.588;2023-09-12T07:26:13;22.27;;;14.20;;
68976;SDS011;56029;52.568;13.588;2023-09-12T07:28:39;21.90;;;14.82;;
68976;SDS011;56029;52.568;13.588;2023-09-12T07:31:04;22.67;;;13.80;;
68976;SDS011;56029;52.568;13.588;2023-09-12T07:33:30;20.15;;;13.55;;
68976;SDS011;56029;52.568;13.588;2023-09-12T07:35:55;21.90;;;13.67;;
68976;SDS011;56029;52.568;13.588;2023-09-12T07:38:21;24.10;;;14.83;;
68976;SDS011;56029;52.568;13.588;2023-09-12T07:40:47;24.45;;;14.90;;
68976;SDS011;56029;52.568;13.588;2023-09-12T07:43:12;26.02;;;13.75;;
68976;SDS011;56029;52.568;13.588;2023-09-12T07:45:38;20.40;;;13.00;;
68976;SDS011;56029;52.568;13.588;2023-09-12T07:48:07;20.67;;;12.37;;
68976;SDS011;56029;52.568;13.588;2023-09-12T07:50:34;21.73;;;12.27;;
68976;SDS011;56029;52.568;13.588;2023-09-12T07:53:00;20.48;;;12.23;;
68976;SDS011;56029;52.568;13.588;2023-09-12T07:55:25;21.67;;;11.85;;
68976;SDS011;56029;52.568;13.588;2023-09-12T07:57:51;20.40;;;11.90;;
68976;SDS011;56029;52.568;13.588;2023-09-12T08:00:17;18.10;;;12.23;;
68976;SDS011;56029;52.568;13.588;2023-09-12T08:02:42;17.73;;;11.50;;
68976;SDS011;56029;52.568;13.588;2023-09-12T08:05:08;18.00;;;11.27;;
68976;SDS011;56029;52.568;13.588;2023-09-12T08:07:34;22.63;;;11.50;;
68976;SDS011;56029;52.568;13.588;2023-09-12T08:10:00;24.83;;;11.27;;
68976;SDS011;56029;52.568;13.588;2023-09-12T08:12:26;17.33;;;10.95;;
68976;SDS011;56029;52.568;13.588;2023-09-12T08:14:56;20.33;;;11.37;;
68976;SDS011;56029;52.568;13.588;2023-09-12T08:17:21;22.08;;;11.68;;
68976;SDS011;56029;52.568;13.588;2023-09-12T08:19:48;17.70;;;10.40;;
68976;SDS011;56029;52.568;13.588;2023-09-12T08:22:13;20.33;;;10.70;;
68976;SDS011;56029;52.568;13.588;2023-09-12T08:24:39;16.65;;;10.65;;
68976;SDS011;56029;52.568;13.588;2023-09-12T08:27:04;22.27;;;11.43;;
68976;SDS011;56029;52.568;13.588;2023-09-12T08:29:31;19.23;;;10.55;;
68976;SDS011;56029;52.568;13.588;2023-09-12T08:31:56;22.77;;;10.73;;
68976;SDS011;56029;52.568;13.588;2023-09-12T08:34:22;17.65;;;9.98;;
68976;SDS011;56029;52.568;13.588;2023-09-12T08:36:47;20.70;;;9.70;;
68976;SDS011;56029;52.568;13.588;2023-09-12T08:39:17;16.33;;;9.60;;
68976;SDS011;56029;52.568;13.588;2023-09-12T08:41:47;16.15;;;9.57;;
68976;SDS011;56029;52.568;13.588;2023-09-12T08:44:14;18.27;;;10.13;;
68976;SDS011;56029;52.568;13.588;2023-09-12T08:46:41;19.65;;;9.57;;
68976;SDS011;56029;52.568;13.588;2023-09-12T08:49:07;19.73;;;9.63;;
68976;SDS011;56029;52.568;13.588;2023-09-12T08:51:33;16.95;;;8.77;;
68976;SDS011;56029;52.568;13.588;2023-09-12T08:53:58;16.77;;;8.27;;
68976;SDS011;56029;52.568;13.588;2023-09-12T08:56:24;15.33;;;8.20;;
68976;SDS011;56029;52.568;13.588;2023-09-12T08:58:50;16.25;;;7.57;;
68976;SDS011;56029;52.568;13.588;2023-09-12T09:01:16;16.38;;;8.10;;
68976;SDS011;56029;52.568;13.588;2023-09-12T09:03:44;17.83;;;7.78;;
68976;SDS011;56029;52.568;13.588;2023-09-12T09:06:10;15.53;;;7.37;;
68976;SDS011;56029;52.568;13.588;2023-09-12T09:08:36;15.23;;;8.10;;
68976;SDS011;56029;52.568;13.588;2023-09-12T09:11:02;16.63;;;7.60;;
68976;SDS011;56029;52.568;13.588;2023-09-12T09:13:28;14.00;;;7.25;;
68976;SDS011;56029;52.568;13.588;2023-09-12T09:16:08;16.30;;;7.90;;
68976;SDS011;56029;52.568;13.588;2023-09-12T09:21:21;17.35;;;7.25;;
68976;SDS011;56029;52.568;13.588;2023-09-12T09:23:48;16.88;;;7.15;;
68976;SDS011;56029;52.568;13.588;2023-09-12T09:26:14;14.93;;;6.87;;
68976;SDS011;56029;52.568;13.588;2023-09-12T09:28:39;15.33;;;8.00;;
68976;SDS011;56029;52.568;13.588;2023-09-12T09:31:09;17.13;;;7.65;;
68976;SDS011;56029;52.568;13.588;2023-09-12T09:33:36;15.07;;;7.27;;
68976;SDS011;56029;52.568;13.588;2023-09-12T09:36:03;15.23;;;7.57;;
68976;SDS011;56029;52.568;13.588;2023-09-12T09:38:29;14.77;;;7.20;;
68976;SDS011;56029;52.568;13.588;2023-09-12T09:40:55;15.33;;;7.07;;
68976;SDS011;56029;52.568;13.588;2023-09-12T09:43:21;13.07;;;6.40;;
68976;SDS011;56029;52.568;13.588;2023-09-12T09:45:47;15.25;;;7.03;;
68976;SDS011;56029;52.568;13.588;2023-09-12T09:48:19;13.13;;;7.35;;
68976;SDS011;56029;52.568;13.588;2023-09-12T09:50:46;15.98;;;6.68;;
68976;SDS011;56029;52.568;13.588;2023-09-12T09:53:12;14.33;;;6.90;;
68976;SDS011;56029;52.568;13.588;2023-09-12T09:55:37;17.58;;;7.88;;
68976;SDS011;56029;52.568;13.588;2023-09-12T09:58:06;12.10;;;6.87;;
68976;SDS011;56029;52.568;13.588;2023-09-12T10:00:33;13.38;;;7.55;;
68976;SDS011;56029;52.568;13.588;2023-09-12T10:03:03;17.08;;;7.47;;
68976;SDS011;56029;52.568;13.588;2023-09-12T10:05:31;17.00;;;7.50;;
68976;SDS011;56029;52.568;13.588;2023-09-12T10:07:57;13.90;;;7.72;;
68976;SDS011;56029;52.568;13.588;2023-09-12T10:10:24;16.00;;;9.07;;
68976;SDS011;56029;52.568;13.588;2023-09-12T10:12:54;15.55;;;8.20;;
68976;SDS011;56029;52.568;13.588;2023-09-12T10:15:21;16.20;;;8.18;;
68976;SDS011;56029;52.568;13.588;2023-09-12T10:17:52;15.57;;;8.30;;
68976;SDS011;56029;52.568;13.588;2023-09-12T10:20:24;17.02;;;8.18;;
68976;SDS011;56029;52.568;13.588;2023-09-12T10:22:56;14.25;;;8.80;;
68976;SDS011;56029;52.568;13.588;2023-09-12T10:25:30;16.95;;;8.77;;
68976;SDS011;56029;52.568;13.588;2023-09-12T10:27:56;16.67;;;9.38;;
68976;SDS011;56029;52.568;13.588;2023-09-12T10:30:22;19.27;;;9.40;;
68976;SDS011;56029;52.568;13.588;2023-09-12T10:32:48;16.35;;;8.57;;
68976;SDS011;56029;52.568;13.588;2023-09-12T10:35:14;16.67;;;9.07;;
68976;SDS011;56029;52.568;13.588;2023-09-12T10:37:41;18.10;;;9.63;;
68976;SDS011;56029;52.568;13.588;2023-09-12T10:40:10;17.60;;;9.90;;
68976;SDS011;56029;52.568;13.588;2023-09-12T10:42:36;19.38;;;9.18;;
68976;SDS011;56029;52.568;13.588;2023-09-12T10:45:02;16.77;;;8.80;;
68976;SDS011;56029;52.568;13.588;2023-09-12T10:47:30;20.70;;;9.27;;
68976;SDS011;56029;52.568;13.588;2023-09-12T10:49:56;15.68;;;9.23;;
68976;SDS011;56029;52.568;13.588;2023-09-12T10:52:25;18.98;;;8.85;;
68976;SDS011;56029;52.568;13.588;2023-09-12T10:54:51;17.33;;;9.37;;
68976;SDS011;56029;52.568;13.588;2023-09-12T10:57:19;16.85;;;8.95;;
68976;SDS011;56029;52.568;13.588;2023-09-12T11:02:30;16.80;;;9.10;;
68976;SDS011;56029;52.568;13.588;2023-09-12T11:04:57;15.93;;;8.60;;
68976;SDS011;56029;52.568;13.588;2023-09-12T11:07:30;13.88;;;8.48;;
68976;SDS011;56029;52.568;13.588;2023-09-12T11:12:39;17.05;;;8.38;;
68976;SDS011;56029;52.568;13.588;2023-09-12T11:15:05;14.47;;;8.30;;
68976;SDS011;56029;52.568;13.588;2023-09-12T11:17:36;17.92;;;8.48;;
68976;SDS011;56029;52.568;13.588;2023-09-12T11:20:03;16.77;;;7.85;;
68976;SDS011;56029;52.568;13.588;2023-09-12T11:22:29;17.87;;;8.00;;
68976;SDS011;56029;52.568;13.588;2023-09-12T11:24:56;15.02;;;7.95;;
68976;SDS011;56029;52.568;13.588;2023-09-12T11:27:23;18.60;;;8.73;;
68976;SDS011;56029;52.568;13.588;2023-09-12T11:29:50;16.58;;;7.93;;
68976;SDS011;56029;52.568;13.588;2023-09-12T11:32:26;15.45;;;8.30;;
68976;SDS011;56029;52.568;13.588;2023-09-12T11:34:55;15.47;;;7.80;;
68976;SDS011;56029;52.568;13.588;2023-09-12T11:37:26;16.85;;;8.15;;
68976;SDS011;56029;52.568;13.588;2023-09-12T11:39:52;17.52;;;7.90;;
68976;SDS011;56029;52.568;13.588;2023-09-12T11:42:19;14.50;;;7.60;;
68976;SDS011;56029;52.568;13.588;2023-09-12T11:44:45;14.83;;;7.07;;
68976;SDS011;56029;52.568;13.588;2023-09-12T11:47:10;18.48;;;7.72;;
68976;SDS011;56029;52.568;13.588;2023-09-12T11:49:37;15.27;;;7.87;;
68976;SDS011;56029;52.568;13.588;2023-09-12T11:52:10;16.73;;;7.65;;
68976;SDS011;56029;52.568;13.588;2023-09-12T11:54:36;15.98;;;8.30;;
68976;SDS011;56029;52.568;13.588;2023-09-12T11:57:02;16.10;;;7.60;;
68976;SDS011;56029;52.568;13.588;2023-09-12T11:59:28;14.87;;;7.77;;
68976;SDS011;56029;52.568;13.588;2023-09-12T12:01:55;16.70;;;7.80;;
68976;SDS011;56029;52.568;13.588;2023-09-12T12:04:20;15.13;;;8.10;;
68976;SDS011;56029;52.568;13.588;2023-09-12T12:06:47;12.90;;;7.32;;
68976;SDS011;56029;52.568;13.588;2023-09-12T12:09:14;11.53;;;7.40;;
68976;SDS011;56029;52.568;13.588;2023-09-12T12:11:39;15.00;;;7.57;;
68976;SDS011;56029;52.568;13.588;2023-09-12T12:14:09;16.77;;;7.77;;
68976;SDS011;56029;52.568;13.588;2023-09-12T12:16:42;16.33;;;8.07;;
68976;SDS011;56029;52.568;13.588;2023-09-12T12:19:09;15.90;;;7.38;;
68976;SDS011;56029;52.568;13.588;2023-09-12T12:21:35;15.75;;;7.45;;
68976;SDS011;56029;52.568;13.588;2023-09-12T12:24:01;14.83;;;7.90;;
68976;SDS011;56029;52.568;13.588;2023-09-12T12:26:27;14.48;;;7.43;;
68976;SDS011;56029;52.568;13.588;2023-09-12T12:28:53;17.67;;;7.83;;
68976;SDS011;56029;52.568;13.588;2023-09-12T12:31:19;17.33;;;7.05;;
68976;SDS011;56029;52.568;13.588;2023-09-12T12:33:48;16.40;;;7.30;;
68976;SDS011;56029;52.568;13.588;2023-09-12T12:36:14;15.20;;;7.50;;
68976;SDS011;56029;52.568;13.588;2023-09-12T12:38:40;12.20;;;7.80;;
68976;SDS011;56029;52.568;13.588;2023-09-12T12:41:05;12.80;;;7.20;;
68976;SDS011;56029;52.568;13.588;2023-09-12T12:43:31;13.17;;;7.10;;
68976;SDS011;56029;52.568;13.588;2023-09-12T12:45:57;14.88;;;7.40;;
68976;SDS011;56029;52.568;13.588;2023-09-12T12:48:34;14.85;;;7.00;;
68976;SDS011;56029;52.568;13.588;2023-09-12T12:51:12;14.40;;;7.17;;
68976;SDS011;56029;52.568;13.588;2023-09-12T12:56:04;14.38;;;7.20;;
68976;SDS011;56029;52.568;13.588;2023-09-12T12:58:30;12.07;;;6.77;;
68976;SDS011;56029;52.568;13.588;2023-09-12T13:00:55;14.07;;;7.63;;
68976;SDS011;56029;52.568;13.588;2023-09-12T13:03:21;14.48;;;6.78;;
68976;SDS011;56029;52.568;13.588;2023-09-12T13:05:46;12.07;;;7.07;;
68976;SDS011;56029;52.568;13.588;2023-09-12T13:08:12;12.53;;;7.50;;
68976;SDS011;56029;52.568;13.588;2023-09-12T13:10:37;14.02;;;7.05;;
68976;SDS011;56029;52.568;13.588;2023-09-12T13:13:03;13.97;;;7.80;;
68976;SDS011;56029;52.568;13.588;2023-09-12T13:15:29;12.40;;;6.88;;
68976;SDS011;56029;52.568;13.588;2023-09-12T13:17:54;11.83;;;7.20;;
68976;SDS011;56029;52.568;13.588;2023-09-12T13:20:20;13.73;;;7.00;;
68976;SDS011;56029;52.568;13.588;2023-09-12T13:22:45;16.03;;;6.73;;
68976;SDS011;56029;52.568;13.588;2023-09-12T13:25:11;13.30;;;7.20;;
68976;SDS011;56029;52.568;13.588;2023-09-12T13:27:37;14.48;;;6.93;;
68976;SDS011;56029;52.568;13.588;2023-09-12T13:30:02;13.50;;;7.13;;
68976;SDS011;56029;52.568;13.588;2023-09-12T13:32:28;12.55;;;6.93;;
68976;SDS011;56029;52.568;13.588;2023-09-12T13:34:54;11.63;;;7.03;;
68976;SDS011;56029;52.568;13.588;2023-09-12T13:37:19;12.80;;;7.30;;
68976;SDS011;56029;52.568;13.588;2023-09-12T13:39:45;14.13;;;7.00;;
68976;SDS011;56029;52.568;13.588;2023-09-12T13:42:10;16.25;;;7.10;;
68976;SDS011;56029;52.568;13.588;2023-09-12T13:44:36;12.67;;;6.70;;
68976;SDS011;56029;52.568;13.588;2023-09-12T13:47:01;12.97;;;7.17;;
68976;SDS011;56029;52.568;13.588;2023-09-12T13:49:27;13.85;;;7.30;;
68976;SDS011;56029;52.568;13.588;2023-09-12T13:51:52;12.23;;;7.27;;
68976;SDS011;56029;52.568;13.588;2023-09-12T13:54:18;14.10;;;7.00;;
68976;SDS011;56029;52.568;13.588;2023-09-12T13:56:44;11.95;;;6.82;;
68976;SDS011;56029;52.568;13.588;2023-09-12T13:59:10;17.83;;;7.00;;
68976;SDS011;56029;52.568;13.588;2023-09-12T14:01:35;14.95;;;7.30;;
68976;SDS011;56029;52.568;13.588;2023-09-12T14:04:04;14.40;;;7.28;;
68976;SDS011;56029;52.568;13.588;2023-09-12T14:06:30;12.13;;;6.93;;
68976;SDS011;56029;52.568;13.588;2023-09-12T14:08:56;14.20;;;6.93;;
68976;SDS011;56029;52.568;13.588;2023-09-12T14:11:22;12.27;;;6.87;;
68976;SDS011;56029;52.568;13.588;2023-09-12T14:13:47;13.32;;;7.10;;
68976;SDS011;56029;52.568;13.588;2023-09-12T14:16:13;14.03;;;7.20;;
68976;SDS011;56029;52.568;13.588;2023-09-12T14:18:38;14.80;;;6.80;;